Time;durP1;ratioP1;P1;durP2;ratioP2;P2;SDS_P1;SDS_P2;PMS_P1;PMS_P2;Temp;Humidity;BMP_temperature;BMP_pressure;BME280_temperature;BME280_humidity;BME280_pressure;Samples;Min_cycle;Max_cycle;Signal;HPM_P1;HPM_P2
2023/03/30 00:00:27;;;;;;;11.00;5.53;;;11.40;99.90;;;;;;5015163;28;20038;-49
2023/03/30 00:03:13;;;;;;;8.80;5.85;;;11.40;99.90;;;;;;5014282;28;20042;-46
2023/03/30 00:06:03;;;;;;;8.23;6.53;;;11.40;99.90;;;;;;4996501;28;20084;-48
2023/03/30 00:08:52;;;;;;;7.93;5.97;;;11.40;99.90;;;;;;5013866;28;20406;-47
2023/03/30 00:11:38;;;;;;;7.22;5.45;;;11.40;99.90;;;;;;5014419;28;20038;-49
2023/03/30 00:14:29;;;;;;;8.40;5.78;;;11.40;99.90;;;;;;4987773;28;20034;-48
2023/03/30 00:17:16;;;;;;;7.30;5.57;;;11.30;99.90;;;;;;4999120;28;20117;-49
2023/03/30 00:20:10;;;;;;;9.23;5.78;;;11.30;99.90;;;;;;5012345;28;20045;-48
2023/03/30 00:22:56;;;;;;;8.40;6.25;;;11.30;99.90;;;;;;5012170;28;20045;-47
2023/03/30 00:25:42;;;;;;;7.30;5.50;;;11.30;99.90;;;;;;5013860;28;20034;-53
2023/03/30 00:28:32;;;;;;;6.65;5.38;;;11.30;99.90;;;;;;4994490;28;20414;-47
2023/03/30 00:31:19;;;;;;;7.25;5.53;;;11.30;99.90;;;;;;5008917;28;20026;-52
2023/03/30 00:34:04;;;;;;;7.53;6.00;;;11.30;99.90;;;;;;5012814;28;20030;-46
2023/03/30 00:36:52;;;;;;;8.93;5.72;;;11.30;99.90;;;;;;5011857;28;20034;-47
2023/03/30 00:39:38;;;;;;;6.82;5.50;;;11.30;99.90;;;;;;5013332;28;20030;-50
2023/03/30 00:42:24;;;;;;;8.20;6.10;;;11.20;99.90;;;;;;4993087;28;20399;-49
2023/03/30 00:45:22;;;;;;;6.85;5.55;;;11.20;99.90;;;;;;4997088;28;20112;-52
2023/03/30 00:48:21;;;;;;;6.35;5.53;;;11.20;99.90;;;;;;5011862;28;20025;-50
2023/03/30 00:51:09;;;;;;;7.93;5.70;;;11.10;99.90;;;;;;5011851;28;20569;-47
2023/03/30 00:54:17;;;;;;;8.30;5.88;;;11.10;99.90;;;;;;5011442;28;20040;-47
2023/03/30 00:57:05;;;;;;;8.88;6.03;;;11.10;99.90;;;;;;5011699;28;20025;-49
2023/03/30 00:59:52;;;;;;;7.82;5.70;;;11.20;99.90;;;;;;5011627;28;20026;-52
2023/03/30 01:02:49;;;;;;;7.85;5.80;;;11.20;99.90;;;;;;5012025;28;20029;-53
2023/03/30 01:05:38;;;;;;;7.30;6.15;;;11.20;99.90;;;;;;5009866;28;20088;-49
2023/03/30 01:08:31;;;;;;;9.15;6.55;;;11.10;99.90;;;;;;5000939;28;20188;-50
2023/03/30 01:11:17;;;;;;;6.68;5.95;;;11.10;99.90;;;;;;4995883;28;20521;-55
2023/03/30 01:14:06;;;;;;;8.20;6.32;;;11.10;99.90;;;;;;4998848;28;20030;-55
2023/03/30 01:17:14;;;;;;;8.90;6.85;;;11.10;99.90;;;;;;5012098;28;20056;-52
2023/03/30 01:20:24;;;;;;;8.57;6.45;;;11.00;99.90;;;;;;5012218;28;20025;-51
2023/03/30 01:23:32;;;;;;;9.18;6.00;;;11.00;99.90;;;;;;5010466;28;20068;-54
2023/03/30 01:26:56;;;;;;;8.05;5.90;;;11.10;99.90;;;;;;5012206;28;20026;-54
2023/03/30 01:29:50;;;;;;;11.18;6.60;;;11.10;99.90;;;;;;5012274;28;20037;-51
2023/03/30 01:33:07;;;;;;;8.52;7.00;;;11.10;99.90;;;;;;5009984;28;20633;-57
2023/03/30 01:36:17;;;;;;;10.68;6.30;;;11.00;99.90;;;;;;5011380;28;20026;-55
2023/03/30 01:39:28;;;;;;;11.60;6.15;;;11.10;99.90;;;;;;5011100;28;20036;-53
2023/03/30 01:42:37;;;;;;;7.97;6.00;;;11.00;99.90;;;;;;5010535;28;20105;-51
2023/03/30 01:45:56;;;;;;;13.75;8.68;;;11.00;99.90;;;;;;4990818;28;20581;-53
2023/03/30 01:49:10;;;;;;;8.02;6.95;;;11.00;99.90;;;;;;5004258;28;20026;-55
2023/03/30 01:52:11;;;;;;;7.32;6.22;;;11.00;99.90;;;;;;4999420;28;21168;-53
2023/03/30 01:55:07;;;;;;;9.27;6.47;;;11.10;99.90;;;;;;5010263;28;20077;-53
2023/03/30 01:58:09;;;;;;;9.23;5.95;;;11.10;99.90;;;;;;5009970;28;20026;-51
2023/03/30 02:00:57;;;;;;;9.55;6.13;;;11.10;99.90;;;;;;5011762;28;20061;-48
2023/03/30 02:03:48;;;;;;;10.32;6.40;;;11.10;99.90;;;;;;4991843;28;20057;-51
2023/03/30 02:06:41;;;;;;;8.40;6.28;;;11.10;99.90;;;;;;5001761;28;20037;-48
2023/03/30 02:09:29;;;;;;;10.40;6.03;;;11.10;99.90;;;;;;5005024;28;20028;-50
2023/03/30 02:12:16;;;;;;;9.10;6.55;;;11.10;99.90;;;;;;4995250;28;20038;-54
2023/03/30 02:15:09;;;;;;;11.65;8.05;;;11.10;99.90;;;;;;4992616;28;20027;-53
2023/03/30 02:17:55;;;;;;;9.40;7.68;;;11.10;99.90;;;;;;4992287;28;20030;-51
2023/03/30 02:20:41;;;;;;;8.65;6.43;;;11.10;99.90;;;;;;5001606;28;20038;-51
2023/03/30 02:23:32;;;;;;;8.95;6.28;;;11.00;99.90;;;;;;5009941;28;20049;-53
2023/03/30 02:26:18;;;;;;;8.43;7.00;;;11.00;99.90;;;;;;5008487;28;20050;-53
2023/03/30 02:29:04;;;;;;;7.00;6.07;;;11.00;99.90;;;;;;4992430;28;20077;-54
2023/03/30 02:31:54;;;;;;;9.95;6.63;;;11.00;99.90;;;;;;4992615;28;20019;-53
2023/03/30 02:34:44;;;;;;;9.00;6.20;;;11.00;99.90;;;;;;5010711;28;20059;-52
2023/03/30 02:37:54;;;;;;;8.95;6.25;;;11.00;99.90;;;;;;5009849;28;20022;-53
2023/03/30 02:40:56;;;;;;;7.78;6.18;;;11.00;99.90;;;;;;5010202;28;20036;-53
2023/03/30 02:44:11;;;;;;;7.75;6.38;;;11.10;99.90;;;;;;5010854;28;20048;-49
2023/03/30 02:47:05;;;;;;;14.73;7.60;;;11.00;99.90;;;;;;4989162;28;20030;-49
2023/03/30 02:50:01;;;;;;;10.18;6.60;;;11.00;99.90;;;;;;5005886;28;20029;-51
2023/03/30 02:52:58;;;;;;;8.32;6.72;;;11.00;99.90;;;;;;5009234;28;20022;-49
2023/03/30 02:56:14;;;;;;;9.65;6.50;;;11.10;99.90;;;;;;4990274;28;20030;-51
2023/03/30 02:59:04;;;;;;;11.32;7.45;;;11.00;99.90;;;;;;4994244;28;20030;-49
2023/03/30 03:01:55;;;;;;;9.65;7.30;;;11.00;99.90;;;;;;5009051;28;20525;-53
2023/03/30 03:04:42;;;;;;;11.90;6.78;;;11.00;99.90;;;;;;4991061;28;20038;-56
2023/03/30 03:07:31;;;;;;;10.85;6.35;;;11.00;99.90;;;;;;4993302;28;20018;-51
2023/03/30 03:10:17;;;;;;;10.20;6.55;;;11.00;99.90;;;;;;5020652;28;20043;-50
2023/03/30 03:13:03;;;;;;;9.50;6.43;;;11.00;99.90;;;;;;5011480;28;20105;-49
2023/03/30 03:15:49;;;;;;;8.45;7.15;;;11.00;99.90;;;;;;5014223;28;20030;-52
2023/03/30 03:18:38;;;;;;;8.13;6.45;;;11.00;99.90;;;;;;5010880;28;20038;-53
2023/03/30 03:21:24;;;;;;;9.35;6.25;;;10.90;99.90;;;;;;4994594;28;20442;-48
2023/03/30 03:24:12;;;;;;;10.55;6.38;;;10.90;99.90;;;;;;4991327;28;20027;-52
2023/03/30 03:26:58;;;;;;;9.00;6.90;;;10.90;99.90;;;;;;4993897;28;20097;-49
2023/03/30 03:29:44;;;;;;;9.00;6.63;;;10.90;99.90;;;;;;5009660;28;20079;-50
2023/03/30 03:32:30;;;;;;;21.55;14.75;;;10.90;99.90;;;;;;5009122;28;20030;-50
2023/03/30 03:35:16;;;;;;;11.85;6.47;;;10.90;99.90;;;;;;5009603;28;20045;-52
2023/03/30 03:38:02;;;;;;;9.25;5.97;;;11.00;99.90;;;;;;5011975;28;20040;-54
2023/03/30 03:40:50;;;;;;;10.90;6.30;;;11.00;99.90;;;;;;5013444;28;20022;-54
2023/03/30 03:43:36;;;;;;;8.38;5.82;;;11.10;99.90;;;;;;5001204;28;20026;-52
2023/03/30 03:46:22;;;;;;;11.75;6.03;;;11.20;99.90;;;;;;5012070;28;20044;-54
2023/03/30 03:49:08;;;;;;;10.48;6.28;;;11.20;99.90;;;;;;5013132;28;20018;-52
2023/03/30 03:51:54;;;;;;;10.50;5.53;;;11.30;99.90;;;;;;4997590;28;20114;-52
2023/03/30 03:54:40;;;;;;;9.30;5.97;;;11.40;99.90;;;;;;5000053;28;20095;-50
2023/03/30 03:57:26;;;;;;;10.93;6.68;;;11.40;99.90;;;;;;5013240;28;20487;-50
2023/03/30 04:00:15;;;;;;;8.10;6.25;;;11.50;99.90;;;;;;5012172;28;20470;-49
2023/03/30 04:03:03;;;;;;;9.52;6.55;;;11.50;99.90;;;;;;5012108;28;20026;-50
2023/03/30 04:05:49;;;;;;;8.73;5.78;;;11.40;99.90;;;;;;5013531;28;20038;-54
2023/03/30 04:08:35;;;;;;;9.02;5.57;;;11.40;99.90;;;;;;5013095;28;20084;-50
2023/03/30 04:11:21;;;;;;;8.63;5.18;;;11.40;99.90;;;;;;5007736;28;20026;-56
2023/03/30 04:14:07;;;;;;;7.28;5.38;;;11.40;99.90;;;;;;4978781;28;20019;-50
2023/03/30 04:16:56;;;;;;;8.60;5.80;;;11.50;99.90;;;;;;5011779;28;20101;-50
2023/03/30 04:19:42;;;;;;;9.52;5.20;;;11.60;99.90;;;;;;5013130;28;20049;-52
2023/03/30 04:22:29;;;;;;;9.75;5.45;;;11.60;99.90;;;;;;5012397;28;20058;-50
2023/03/30 04:25:16;;;;;;;7.65;5.70;;;11.60;99.90;;;;;;5012624;28;20068;-51
2023/03/30 04:28:03;;;;;;;6.47;5.15;;;11.60;99.90;;;;;;5013330;28;20022;-51
2023/03/30 04:30:50;;;;;;;9.65;6.10;;;11.60;99.90;;;;;;5013979;28;20034;-52
2023/03/30 04:33:49;;;;;;;7.57;5.07;;;11.70;99.90;;;;;;5011140;28;20530;-53
2023/03/30 04:36:37;;;;;;;12.73;5.22;;;11.70;99.90;;;;;;4991782;28;20054;-51
2023/03/30 04:39:23;;;;;;;10.10;5.57;;;11.70;99.90;;;;;;4996699;28;20522;-55
2023/03/30 04:42:13;;;;;;;10.00;5.22;;;11.80;99.90;;;;;;4996954;28;20049;-54
2023/03/30 04:45:06;;;;;;;12.02;6.10;;;11.90;99.90;;;;;;4987341;28;20037;-49
2023/03/30 04:47:52;;;;;;;10.73;6.45;;;11.90;99.90;;;;;;4991929;28;20034;-55
2023/03/30 04:50:38;;;;;;;8.82;5.00;;;11.80;99.90;;;;;;5005633;28;20026;-54
2023/03/30 04:53:24;;;;;;;10.02;4.78;;;11.90;99.90;;;;;;5002641;28;20049;-52
2023/03/30 04:56:10;;;;;;;7.47;4.75;;;12.00;99.90;;;;;;5005455;28;20534;-53
2023/03/30 04:58:56;;;;;;;8.45;4.95;;;12.00;99.90;;;;;;4991986;28;20121;-51
2023/03/30 05:01:42;;;;;;;9.95;4.82;;;12.00;99.90;;;;;;5003143;28;20395;-53
2023/03/30 05:04:28;;;;;;;11.10;5.10;;;12.00;99.90;;;;;;5005361;28;20442;-51
2023/03/30 05:07:14;;;;;;;9.00;5.05;;;12.10;99.90;;;;;;5002722;28;20060;-52
2023/03/30 05:10:00;;;;;;;13.85;5.45;;;12.10;99.90;;;;;;5008707;28;20039;-49
2023/03/30 05:12:47;;;;;;;12.75;5.10;;;12.10;99.90;;;;;;5002289;28;20121;-54
2023/03/30 05:15:33;;;;;;;8.88;4.90;;;12.00;99.90;;;;;;5009913;28;20503;-54
2023/03/30 05:18:19;;;;;;;9.48;4.95;;;12.10;99.90;;;;;;5011405;28;20439;-53
2023/03/30 05:21:06;;;;;;;10.55;4.97;;;12.20;99.90;;;;;;4995343;28;20593;-54
2023/03/30 05:23:52;;;;;;;8.77;5.00;;;12.20;99.90;;;;;;5010918;28;20419;-56
2023/03/30 05:26:37;;;;;;;6.53;5.70;;;12.20;99.90;;;;;;4999375;28;21636;-55
2023/03/30 05:29:23;;;;;;;8.52;4.47;;;12.10;99.90;;;;;;5005359;28;20464;-54
2023/03/30 05:32:10;;;;;;;10.48;5.30;;;12.10;99.90;;;;;;5010326;28;20457;-53
2023/03/30 05:34:56;;;;;;;12.80;4.85;;;12.10;99.90;;;;;;5010508;28;20087;-57
2023/03/30 05:37:42;;;;;;;9.48;5.60;;;12.10;99.90;;;;;;5010299;28;20034;-53
2023/03/30 05:40:28;;;;;;;12.90;6.40;;;12.00;99.90;;;;;;5011040;28;20033;-54
2023/03/30 05:43:14;;;;;;;12.60;5.30;;;12.10;99.90;;;;;;5011355;28;20121;-53
2023/03/30 05:46:01;;;;;;;10.15;4.80;;;12.10;99.90;;;;;;5011819;28;20030;-55
2023/03/30 05:48:47;;;;;;;8.60;4.55;;;12.10;99.90;;;;;;4998134;28;20414;-52
2023/03/30 05:51:33;;;;;;;9.30;4.32;;;12.10;99.90;;;;;;5010566;28;20109;-55
2023/03/30 05:54:19;;;;;;;7.63;4.75;;;12.10;99.90;;;;;;4992115;28;20031;-53
2023/03/30 05:57:04;;;;;;;9.35;5.47;;;12.20;99.90;;;;;;4993769;28;20054;-52
2023/03/30 05:59:51;;;;;;;9.57;4.90;;;12.30;99.90;;;;;;4996380;28;20044;-53
2023/03/30 06:02:37;;;;;;;6.85;4.20;;;12.30;99.90;;;;;;5009231;28;20022;-54
2023/03/30 06:05:23;;;;;;;13.20;5.03;;;12.40;99.90;;;;;;5010462;28;20030;-53
2023/03/30 06:08:12;;;;;;;11.50;4.70;;;12.40;99.90;;;;;;5009228;28;20479;-49
2023/03/30 06:10:58;;;;;;;9.68;4.28;;;12.40;99.90;;;;;;5007134;28;20528;-52
2023/03/30 06:13:44;;;;;;;9.82;4.38;;;12.50;99.90;;;;;;5012300;28;20125;-55
2023/03/30 06:16:30;;;;;;;9.10;4.20;;;12.60;99.90;;;;;;5009782;28;20053;-50
2023/03/30 06:19:16;;;;;;;9.05;4.95;;;12.60;99.90;;;;;;5010948;28;20038;-52
2023/03/30 06:22:03;;;;;;;6.50;4.00;;;12.70;99.90;;;;;;5010931;28;20028;-55
2023/03/30 06:24:49;;;;;;;12.95;5.20;;;12.70;99.90;;;;;;5003513;28;20117;-54
2023/03/30 06:27:36;;;;;;;10.82;4.47;;;12.90;99.90;;;;;;4994865;28;20033;-52
2023/03/30 06:30:22;;;;;;;16.35;4.72;;;13.00;99.90;;;;;;5000123;28;20030;-52
2023/03/30 06:33:08;;;;;;;10.15;4.40;;;13.00;99.90;;;;;;5012625;28;20030;-52
2023/03/30 06:35:54;;;;;;;13.70;4.65;;;13.10;99.90;;;;;;4977590;28;20577;-52
2023/03/30 06:38:42;;;;;;;11.27;3.92;;;13.10;99.90;;;;;;4993588;28;20035;-53
2023/03/30 06:41:28;;;;;;;11.40;4.20;;;13.20;99.90;;;;;;5007869;28;20033;-58
2023/03/30 06:44:14;;;;;;;10.27;4.80;;;13.20;99.90;;;;;;4997198;28;20041;-55
2023/03/30 06:47:00;;;;;;;11.75;3.90;;;13.20;99.90;;;;;;5006530;28;20057;-55
2023/03/30 06:49:47;;;;;;;12.45;4.63;;;13.30;99.90;;;;;;5011493;28;20041;-53
2023/03/30 06:52:34;;;;;;;14.65;5.53;;;13.40;99.90;;;;;;5009960;28;20347;-50
2023/03/30 06:55:21;;;;;;;12.63;4.95;;;13.50;99.90;;;;;;5009269;28;20518;-51
2023/03/30 06:58:07;;;;;;;12.18;5.20;;;13.50;99.90;;;;;;5009379;28;20129;-51
2023/03/30 07:00:53;;;;;;;12.48;4.60;;;13.60;99.90;;;;;;5011052;28;20529;-53
2023/03/30 07:03:40;;;;;;;11.88;4.95;;;13.80;99.90;;;;;;5009568;28;20552;-55
2023/03/30 07:06:26;;;;;;;12.55;4.55;;;13.90;99.90;;;;;;5008997;28;20038;-52
2023/03/30 07:09:12;;;;;;;10.38;4.90;;;14.00;99.90;;;;;;4996489;28;20414;-57
2023/03/30 07:11:58;;;;;;;13.77;4.88;;;14.00;99.90;;;;;;5011323;28;20092;-56
2023/03/30 07:14:44;;;;;;;15.40;4.65;;;13.90;99.90;;;;;;5013838;28;20418;-53
2023/03/30 07:17:31;;;;;;;10.02;5.25;;;13.90;99.90;;;;;;5013535;28;20034;-52
2023/03/30 07:20:19;;;;;;;10.70;5.65;;;13.90;99.90;;;;;;5012841;28;20041;-53
2023/03/30 07:23:06;;;;;;;9.20;4.78;;;14.00;99.90;;;;;;5013124;28;20072;-56
2023/03/30 07:25:52;;;;;;;7.75;4.47;;;14.00;99.90;;;;;;5013525;28;20034;-52
2023/03/30 07:28:39;;;;;;;9.90;4.97;;;14.10;99.90;;;;;;4997079;28;20037;-54
2023/03/30 07:31:26;;;;;;;12.20;4.70;;;14.10;99.90;;;;;;4994921;28;20033;-52
2023/03/30 07:34:12;;;;;;;9.25;5.10;;;14.20;99.90;;;;;;4998314;28;20025;-50
2023/03/30 07:36:58;;;;;;;14.43;4.82;;;14.30;99.90;;;;;;4994341;28;20026;-51
2023/03/30 07:39:44;;;;;;;6.85;4.38;;;14.50;99.90;;;;;;4994538;28;20022;-53
2023/03/30 07:42:30;;;;;;;10.05;4.82;;;14.50;99.90;;;;;;5013152;28;20056;-57
2023/03/30 07:45:16;;;;;;;12.02;5.40;;;14.50;99.90;;;;;;5012655;28;20034;-52
2023/03/30 07:48:02;;;;;;;9.38;5.15;;;14.50;99.90;;;;;;5013008;28;20122;-49
2023/03/30 07:50:49;;;;;;;11.23;4.85;;;14.50;99.90;;;;;;5013340;28;20092;-53
2023/03/30 07:53:36;;;;;;;11.48;4.75;;;14.60;99.90;;;;;;5011969;28;20022;-52
2023/03/30 07:56:22;;;;;;;13.00;5.55;;;14.70;99.90;;;;;;5012862;28;20041;-50
2023/03/30 07:59:09;;;;;;;9.50;4.82;;;14.60;99.90;;;;;;5013010;28;20427;-51
2023/03/30 08:01:55;;;;;;;11.75;4.40;;;14.60;99.90;;;;;;4998511;28;20061;-52
2023/03/30 08:04:42;;;;;;;12.93;5.07;;;14.70;99.90;;;;;;4998758;28;20081;-49
2023/03/30 08:07:29;;;;;;;11.60;4.93;;;14.70;99.90;;;;;;5012691;28;20033;-57
2023/03/30 08:10:15;;;;;;;8.95;4.43;;;14.70;99.90;;;;;;5011705;28;20034;-51
2023/03/30 08:13:01;;;;;;;7.50;4.70;;;14.70;99.90;;;;;;5011756;28;20022;-50
2023/03/30 08:15:47;;;;;;;10.38;5.05;;;14.70;99.90;;;;;;5012206;28;20079;-47
2023/03/30 08:18:33;;;;;;;10.00;4.82;;;14.70;99.90;;;;;;4998297;28;20033;-51
2023/03/30 08:21:20;;;;;;;10.15;4.95;;;14.80;99.90;;;;;;5012157;28;20080;-53
2023/03/30 08:24:06;;;;;;;8.77;4.47;;;14.80;99.90;;;;;;5011170;28;20076;-47
2023/03/30 08:26:52;;;;;;;10.75;5.20;;;14.80;99.90;;;;;;5012275;28;20046;-48
2023/03/30 08:29:38;;;;;;;9.43;4.32;;;14.70;99.90;;;;;;5012798;28;20084;-51
2023/03/30 08:32:25;;;;;;;11.20;4.88;;;14.70;99.90;;;;;;5011806;28;20027;-51
2023/03/30 08:35:12;;;;;;;11.65;5.15;;;14.70;99.90;;;;;;5012781;28;20080;-56
2023/03/30 08:37:58;;;;;;;10.77;5.20;;;14.70;99.90;;;;;;5012346;28;20060;-48
2023/03/30 08:40:48;;;;;;;11.25;5.13;;;14.80;99.90;;;;;;5012865;28;20026;-49
2023/03/30 08:43:51;;;;;;;9.35;5.13;;;14.70;99.90;;;;;;5011930;28;20030;-49
2023/03/30 08:46:37;;;;;;;8.43;5.20;;;14.70;99.90;;;;;;5012050;28;20105;-51
2023/03/30 08:49:25;;;;;;;20.00;6.20;;;14.60;99.90;;;;;;4997388;28;20029;-47
2023/03/30 08:52:21;;;;;;;10.93;5.43;;;14.60;99.90;;;;;;5011929;28;20066;-50
2023/03/30 08:55:23;;;;;;;8.90;5.55;;;14.60;99.90;;;;;;5011778;28;20375;-51
2023/03/30 08:58:14;;;;;;;11.38;5.13;;;14.50;99.90;;;;;;5011739;28;20510;-50
2023/03/30 09:01:33;;;;;;;9.50;5.22;;;14.50;99.90;;;;;;5011689;28;20034;-51
2023/03/30 09:04:22;;;;;;;11.05;5.45;;;14.50;99.90;;;;;;5011720;28;20029;-48
2023/03/30 09:07:17;;;;;;;10.63;5.28;;;14.40;99.90;;;;;;5011142;28;20069;-50
2023/03/30 09:10:10;;;;;;;7.85;5.25;;;14.50;99.90;;;;;;5010156;28;20399;-47
2023/03/30 09:12:59;;;;;;;11.52;4.72;;;14.50;99.90;;;;;;5010938;28;20042;-52
2023/03/30 09:16:01;;;;;;;14.55;6.00;;;14.60;99.90;;;;;;5010791;28;20030;-48
2023/03/30 09:18:53;;;;;;;10.85;6.40;;;14.60;99.90;;;;;;5011087;28;20034;-48
2023/03/30 09:21:39;;;;;;;9.57;5.43;;;14.60;99.90;;;;;;5009671;28;20033;-51
2023/03/30 09:24:26;;;;;;;11.73;5.88;;;14.70;99.90;;;;;;5011585;28;20038;-50
2023/03/30 09:27:24;;;;;;;14.73;6.10;;;14.70;99.90;;;;;;5010821;28;20030;-48
2023/03/30 09:30:20;;;;;;;17.58;7.30;;;14.70;99.90;;;;;;5010560;28;20437;-50
2023/03/30 09:33:39;;;;;;;11.20;5.50;;;14.80;99.90;;;;;;5012145;28;20503;-58
2023/03/30 09:36:43;;;;;;;13.23;6.45;;;14.80;99.90;;;;;;4976729;28;20562;-54
2023/03/30 09:39:30;;;;;;;7.80;4.47;;;14.90;99.90;;;;;;4992162;28;20489;-58
2023/03/30 09:42:38;;;;;;;10.15;5.15;;;14.90;99.90;;;;;;4997558;28;20674;-54
2023/03/30 09:45:31;;;;;;;8.80;4.78;;;15.00;99.90;;;;;;5005312;28;20064;-54
2023/03/30 09:48:17;;;;;;;9.00;4.63;;;15.00;99.90;;;;;;4997034;28;20037;-57
2023/03/30 09:51:21;;;;;;;11.13;5.60;;;15.00;99.90;;;;;;5011857;28;20413;-60
2023/03/30 09:54:13;;;;;;;9.45;4.75;;;15.00;99.90;;;;;;5011962;28;20037;-59
2023/03/30 09:56:59;;;;;;;10.45;5.28;;;15.10;99.90;;;;;;5011007;28;20033;-58
2023/03/30 09:59:45;;;;;;;17.05;5.13;;;15.20;99.90;;;;;;4983830;28;20040;-56
2023/03/30 10:02:32;;;;;;;8.68;4.03;;;15.30;99.90;;;;;;5011840;28;20113;-56
2023/03/30 10:05:18;;;;;;;8.93;5.30;;;15.40;99.90;;;;;;5011239;28;20042;-55
2023/03/30 10:08:18;;;;;;;10.35;4.50;;;15.40;99.90;;;;;;5011086;28;20022;-55
2023/03/30 10:11:05;;;;;;;12.68;4.85;;;15.40;99.90;;;;;;5010846;28;20038;-55
2023/03/30 10:13:51;;;;;;;12.80;4.47;;;15.30;99.90;;;;;;4996057;28;20029;-56
2023/03/30 10:16:37;;;;;;;11.18;5.13;;;15.50;99.90;;;;;;4995217;28;20509;-58
2023/03/30 10:19:24;;;;;;;10.00;4.43;;;15.60;99.90;;;;;;5007906;28;20044;-59
2023/03/30 10:22:16;;;;;;;18.80;5.20;;;15.60;99.90;;;;;;5001652;28;20629;-59
2023/03/30 10:25:08;;;;;;;11.98;5.03;;;15.70;99.90;;;;;;5009119;28;20399;-58
2023/03/30 10:28:00;;;;;;;9.15;4.60;;;15.70;99.90;;;;;;4995353;28;20087;-56
2023/03/30 10:30:57;;;;;;;8.68;5.03;;;16.00;99.90;;;;;;5006629;28;20199;-51
2023/03/30 10:33:44;;;;;;;10.02;5.03;;;16.20;99.90;;;;;;4991270;28;20085;-52
2023/03/30 10:36:37;;;;;;;10.18;4.50;;;16.20;99.90;;;;;;4996803;28;20181;-49
2023/03/30 10:39:29;;;;;;;9.45;5.13;;;16.00;99.90;;;;;;5000533;28;20049;-53
2023/03/30 10:42:26;;;;;;;7.55;4.82;;;16.00;99.90;;;;;;4993864;28;20117;-55
2023/03/30 10:45:19;;;;;;;11.77;4.93;;;16.00;99.90;;;;;;5001590;28;20061;-50
2023/03/30 10:48:45;;;;;;;10.25;5.15;;;16.00;99.90;;;;;;5000922;28;20663;-55
2023/03/30 10:51:37;;;;;;;8.48;4.88;;;16.00;99.90;;;;;;4971939;28;20461;-59
2023/03/30 10:54:45;;;;;;;8.85;4.30;;;15.90;99.90;;;;;;4998887;28;20434;-55
2023/03/30 10:57:51;;;;;;;12.73;5.57;;;15.80;99.90;;;;;;5008895;28;20026;-52
2023/03/30 11:01:14;;;;;;;8.70;4.45;;;15.70;99.90;;;;;;5000637;28;20034;-56
2023/03/30 11:04:08;;;;;;;9.63;4.57;;;15.90;99.90;;;;;;4994134;28;20122;-54
2023/03/30 11:06:57;;;;;;;11.57;4.70;;;15.90;99.90;;;;;;5001867;28;20116;-48
2023/03/30 11:09:53;;;;;;;9.05;5.20;;;16.00;99.90;;;;;;5005172;28;20026;-50
2023/03/30 11:12:44;;;;;;;12.13;5.28;;;16.00;99.90;;;;;;5010036;28;20094;-53
2023/03/30 11:15:48;;;;;;;12.35;5.18;;;16.20;99.90;;;;;;5008896;28;20706;-48
2023/03/30 11:18:46;;;;;;;9.70;5.68;;;16.30;99.90;;;;;;5000743;28;20543;-52
2023/03/30 11:21:41;;;;;;;12.52;5.72;;;16.40;99.90;;;;;;5009001;28;20050;-54
2023/03/30 11:24:27;;;;;;;;;;;16.40;99.90;;;;;;5010868;28;20584;-54
2023/03/30 11:27:25;;;;;;;13.18;5.40;;;16.60;99.90;;;;;;5001703;28;20285;-47
2023/03/30 11:30:28;;;;;;;9.63;4.60;;;16.60;99.90;;;;;;4990852;28;20465;-58
2023/03/30 11:33:37;;;;;;;10.50;4.97;;;16.50;99.90;;;;;;4995034;28;20034;-54
2023/03/30 11:36:51;;;;;;;8.77;5.68;;;16.50;99.90;;;;;;5005216;28;20104;-54
2023/03/30 11:39:44;;;;;;;8.67;4.67;;;16.70;99.90;;;;;;5008056;28;20050;-52
2023/03/30 11:42:31;;;;;;;9.60;4.90;;;17.00;99.90;;;;;;5009500;28;20264;-51
2023/03/30 11:45:50;;;;;;;6.85;4.30;;;17.20;99.90;;;;;;4988705;28;20038;-51
2023/03/30 11:48:51;;;;;;;8.68;4.45;;;17.20;99.60;;;;;;4999594;28;20394;-52
2023/03/30 11:51:57;;;;;;;11.70;4.63;;;17.40;99.30;;;;;;5009598;28;20053;-51
2023/03/30 11:55:22;;;;;;;6.53;3.88;;;17.60;99.10;;;;;;5008320;28;20112;-49
2023/03/30 11:58:33;;;;;;;12.70;5.10;;;17.70;98.20;;;;;;5009729;28;20026;-52
2023/03/30 12:01:39;;;;;;;9.77;4.43;;;17.50;98.60;;;;;;4994098;28;20085;-54
2023/03/30 12:04:32;;;;;;;10.98;4.38;;;17.30;98.40;;;;;;4988810;28;20123;-50
2023/03/30 12:07:31;;;;;;;11.15;4.38;;;17.30;98.80;;;;;;5012934;28;20026;-51
2023/03/30 12:10:35;;;;;;;7.45;4.50;;;17.30;99.00;;;;;;5002400;28;20138;-52
2023/03/30 12:13:21;;;;;;;10.18;4.20;;;17.40;98.90;;;;;;5009402;28;20041;-50
2023/03/30 12:16:13;;;;;;;12.30;4.38;;;17.40;98.80;;;;;;5013528;28;20418;-53
2023/03/30 12:19:11;;;;;;;9.10;4.35;;;17.50;98.90;;;;;;4998128;28;20056;-54
2023/03/30 12:22:03;;;;;;;8.40;4.20;;;17.60;98.50;;;;;;5012486;28;20037;-64
2023/03/30 12:25:17;;;;;;;6.07;4.13;;;17.70;97.70;;;;;;5010792;28;20117;-54
2023/03/30 12:28:15;;;;;;;10.02;4.03;;;17.70;97.90;;;;;;4960430;28;20119;-57
2023/03/30 12:31:01;;;;;;;9.60;4.70;;;17.70;97.70;;;;;;5012192;28;20458;-60
2023/03/30 12:33:50;;;;;;;11.40;4.30;;;17.60;97.80;;;;;;5012178;28;20030;-57
2023/03/30 12:36:41;;;;;;;6.95;4.05;;;17.60;97.60;;;;;;5012053;28;20458;-57
2023/03/30 12:39:32;;;;;;;7.10;3.70;;;17.60;97.20;;;;;;5012593;28;20042;-54
2023/03/30 12:42:26;;;;;;;10.55;4.10;;;17.80;97.00;;;;;;4995030;28;20034;-56
2023/03/30 12:45:19;;;;;;;7.00;3.88;;;17.80;96.70;;;;;;5001959;28;20045;-52
2023/03/30 12:48:17;;;;;;;8.52;4.22;;;17.60;96.60;;;;;;5013066;28;20406;-57
2023/03/30 12:51:18;;;;;;;6.65;3.60;;;17.50;97.00;;;;;;5003155;28;20109;-55
2023/03/30 12:54:29;;;;;;;7.03;4.13;;;17.40;97.40;;;;;;5019439;28;20041;-60
2023/03/30 12:57:51;;;;;;;7.53;4.63;;;17.30;97.90;;;;;;5016589;28;20030;-53
2023/03/30 13:00:56;;;;;;;5.95;3.88;;;17.30;98.10;;;;;;5019026;28;20033;-58
2023/03/30 13:04:24;;;;;;;8.50;3.60;;;17.40;97.90;;;;;;5018441;28;20085;-56
2023/03/30 13:07:20;;;;;;;6.85;3.40;;;17.40;96.80;;;;;;4999828;28;20034;-56
2023/03/30 13:10:42;;;;;;;6.43;3.60;;;17.50;96.50;;;;;;4993595;28;20056;-57
2023/03/30 13:13:47;;;;;;;6.22;3.70;;;17.40;96.50;;;;;;4912218;29;20034;-60
2023/03/30 13:16:51;;;;;;;8.98;3.83;;;17.50;96.10;;;;;;5011517;28;20116;-54
2023/03/30 13:19:37;;;;;;;7.18;3.38;;;17.70;95.90;;;;;;4992667;28;20070;-57
2023/03/30 13:22:28;;;;;;;8.95;3.53;;;17.70;95.40;;;;;;5006845;28;20030;-56
2023/03/30 13:25:19;;;;;;;5.60;3.35;;;17.80;95.70;;;;;;4996999;28;20015;-57
2023/03/30 13:28:44;;;;;;;9.40;3.45;;;17.60;95.70;;;;;;5010469;28;20401;-57
2023/03/30 13:31:54;;;;;;;7.85;3.50;;;17.60;95.60;;;;;;4998455;28;20340;-58
2023/03/30 13:34:40;;;;;;;7.60;2.40;;;17.40;96.10;;;;;;5009950;28;20026;-58
2023/03/30 13:37:45;;;;;;;4.65;2.05;;;16.50;95.50;;;;;;4993198;28;20098;-53
2023/03/30 13:40:40;;;;;;;3.58;2.15;;;14.70;99.90;;;;;;4996122;28;20062;-58
2023/03/30 13:43:46;;;;;;;4.18;2.28;;;13.30;99.90;;;;;;4999316;28;20113;-59
2023/03/30 13:46:44;;;;;;;;;;;13.00;99.90;;;;;;4991675;28;20053;-59
2023/03/30 13:50:26;;;;;;;3.95;2.50;;;12.70;99.90;;;;;;5003923;28;19897;-54
2023/03/30 13:53:15;;;;;;;4.25;2.40;;;12.50;99.90;;;;;;4926727;28;20027;-60
2023/03/30 13:56:06;;;;;;;5.53;2.75;;;12.30;99.90;;;;;;5009620;28;20038;-57
2023/03/30 13:59:04;;;;;;;4.68;3.03;;;12.20;99.90;;;;;;4995666;28;20037;-54
2023/03/30 14:01:57;;;;;;;4.03;2.60;;;12.10;99.90;;;;;;5002403;28;20030;-58
2023/03/30 14:04:47;;;;;;;3.38;2.70;;;12.10;99.90;;;;;;5007706;28;20113;-60
2023/03/30 14:07:40;;;;;;;5.88;2.60;;;12.10;99.90;;;;;;5010927;28;20040;-56
2023/03/30 14:10:29;;;;;;;6.47;3.25;;;12.10;99.90;;;;;;5010067;28;20018;-61
2023/03/30 14:13:15;;;;;;;7.50;3.10;;;12.10;99.90;;;;;;5010653;28;20104;-60
2023/03/30 14:16:02;;;;;;;5.32;3.10;;;12.00;99.90;;;;;;5009749;28;20026;-61
2023/03/30 14:18:48;;;;;;;5.22;2.70;;;12.10;99.90;;;;;;4996496;28;20066;-58
2023/03/30 14:21:36;;;;;;;4.45;2.95;;;12.10;99.90;;;;;;5007690;28;20029;-53
2023/03/30 14:24:30;;;;;;;4.97;3.13;;;12.00;99.90;;;;;;4990625;28;20037;-59
2023/03/30 14:27:16;;;;;;;3.78;2.90;;;12.00;99.90;;;;;;4994584;28;20026;-55
2023/03/30 14:30:33;;;;;;;4.28;2.38;;;12.00;99.90;;;;;;5010555;28;20034;-57
2023/03/30 14:33:20;;;;;;;5.75;2.42;;;12.10;99.90;;;;;;5010874;28;20129;-53
2023/03/30 14:36:08;;;;;;;5.97;3.25;;;12.20;99.90;;;;;;5007353;28;20034;-55
2023/03/30 14:38:56;;;;;;;7.20;2.90;;;12.30;99.90;;;;;;4983946;28;20076;-55
2023/03/30 14:41:42;;;;;;;5.43;2.90;;;12.40;99.90;;;;;;4994899;28;20479;-55
2023/03/30 14:44:28;;;;;;;5.47;2.70;;;12.50;99.90;;;;;;5010416;28;20593;-54
2023/03/30 14:47:18;;;;;;;4.38;2.70;;;12.50;99.90;;;;;;5009084;28;20041;-58
2023/03/30 14:50:09;;;;;;;4.80;3.08;;;12.40;99.90;;;;;;4992732;28;20061;-56
2023/03/30 14:52:55;;;;;;;5.97;2.58;;;12.50;99.90;;;;;;5004323;28;20034;-56